CheckWX is a tool to help pilots better visualize weather data.  It is not intended as a substitute for an official pre-flight weather briefing.

12:01:51 UTC

EGQL METAR
RAF Leuchars Airport
St. Andrews, United Kingdom
Current

1 hour ago

EGQL 251050Z 32008KT CAVOK 10/M01 Q1032 BLU
Observed
Mar-25 @ 10:50 UTC
Wind
  • 320° at 8 KTS
Visibility
10,000+ meters
Flight Rules
VFR
Cloud Levels
  • Clear skies
Temperature
10°C / 50°F
Dewpoint
-1°C / 30°F
Humidity
47%
Altimeter
30.47" Hg
Pressure
1031.91 hPa
Previous

2 hours ago

EGQL 250950Z 30011KT CAVOK 09/M01 Q1032 BLU
Observed
Mar-25 @ 09:50 UTC
Wind
  • 300° at 11 KTS
Visibility
10,000+ meters
Flight Rules
VFR
Cloud Levels
  • Clear skies
Temperature
C / 48°F
Dewpoint
-1°C / 30°F
Humidity
50%
Altimeter
30.47" Hg
Pressure
1031.91 hPa
Previous

3 hours ago

EGQL 250850Z 31007KT CAVOK 08/M01 Q1031 BLU
Observed
Mar-25 @ 08:50 UTC
Wind
  • 310° at 7 KTS
Visibility
10,000+ meters
Flight Rules
VFR
Cloud Levels
  • Clear skies
Temperature
C / 46°F
Dewpoint
-1°C / 30°F
Humidity
53%
Altimeter
30.44" Hg
Pressure
1030.91 hPa